sensor_id;sensor_type;location;lat;lon;timestamp;P1;durP1;ratioP1;P2;durP2;ratioP2
11305;SDS011;5708;50.660;6.778;2023-03-21T00:00:32;12.27;;;5.07;;
11305;SDS011;5708;50.660;6.778;2023-03-21T00:02:57;12.18;;;5.13;;
11305;SDS011;5708;50.660;6.778;2023-03-21T00:05:22;13.13;;;5.95;;
11305;SDS011;5708;50.660;6.778;2023-03-21T00:07:47;15.45;;;5.43;;
11305;SDS011;5708;50.660;6.778;2023-03-21T00:10:13;10.63;;;5.47;;
11305;SDS011;5708;50.660;6.778;2023-03-21T00:12:38;11.23;;;5.20;;
11305;SDS011;5708;50.660;6.778;2023-03-21T00:15:07;12.80;;;5.20;;
11305;SDS011;5708;50.660;6.778;2023-03-21T00:17:32;13.63;;;5.43;;
11305;SDS011;5708;50.660;6.778;2023-03-21T00:19:58;15.70;;;5.90;;
11305;SDS011;5708;50.660;6.778;2023-03-21T00:22:24;12.30;;;5.07;;
11305;SDS011;5708;50.660;6.778;2023-03-21T00:24:50;14.85;;;5.30;;
11305;SDS011;5708;50.660;6.778;2023-03-21T00:27:16;17.15;;;5.50;;
11305;SDS011;5708;50.660;6.778;2023-03-21T00:29:43;16.60;;;5.75;;
11305;SDS011;5708;50.660;6.778;2023-03-21T00:32:08;13.68;;;5.20;;
11305;SDS011;5708;50.660;6.778;2023-03-21T00:34:34;14.80;;;5.38;;
11305;SDS011;5708;50.660;6.778;2023-03-21T00:36:59;16.00;;;5.90;;
11305;SDS011;5708;50.660;6.778;2023-03-21T00:39:25;17.17;;;5.43;;
11305;SDS011;5708;50.660;6.778;2023-03-21T00:41:50;18.20;;;5.43;;
11305;SDS011;5708;50.660;6.778;2023-03-21T00:44:16;13.65;;;5.45;;
11305;SDS011;5708;50.660;6.778;2023-03-21T00:46:41;15.07;;;5.55;;
11305;SDS011;5708;50.660;6.778;2023-03-21T00:49:06;14.82;;;5.53;;
11305;SDS011;5708;50.660;6.778;2023-03-21T00:51:32;13.00;;;5.53;;
11305;SDS011;5708;50.660;6.778;2023-03-21T00:53:57;17.00;;;5.90;;
11305;SDS011;5708;50.660;6.778;2023-03-21T00:56:22;13.25;;;5.25;;
11305;SDS011;5708;50.660;6.778;2023-03-21T00:58:48;13.48;;;5.57;;
11305;SDS011;5708;50.660;6.778;2023-03-21T01:01:13;14.85;;;5.22;;
11305;SDS011;5708;50.660;6.778;2023-03-21T01:03:38;10.90;;;5.15;;
11305;SDS011;5708;50.660;6.778;2023-03-21T01:06:09;14.07;;;5.00;;
11305;SDS011;5708;50.660;6.778;2023-03-21T01:08:38;13.55;;;5.60;;
11305;SDS011;5708;50.660;6.778;2023-03-21T01:11:05;15.02;;;5.28;;
11305;SDS011;5708;50.660;6.778;2023-03-21T01:13:30;13.70;;;5.30;;
11305;SDS011;5708;50.660;6.778;2023-03-21T01:15:56;12.60;;;5.10;;
11305;SDS011;5708;50.660;6.778;2023-03-21T01:18:23;17.55;;;5.10;;
11305;SDS011;5708;50.660;6.778;2023-03-21T01:20:49;13.77;;;5.35;;
11305;SDS011;5708;50.660;6.778;2023-03-21T01:23:15;14.38;;;5.80;;
11305;SDS011;5708;50.660;6.778;2023-03-21T01:25:40;19.00;;;6.07;;
11305;SDS011;5708;50.660;6.778;2023-03-21T01:28:06;15.40;;;5.80;;
11305;SDS011;5708;50.660;6.778;2023-03-21T01:30:31;13.93;;;5.45;;
11305;SDS011;5708;50.660;6.778;2023-03-21T01:32:56;12.70;;;5.50;;
11305;SDS011;5708;50.660;6.778;2023-03-21T01:35:22;15.07;;;5.25;;
11305;SDS011;5708;50.660;6.778;2023-03-21T01:37:47;12.85;;;4.93;;
11305;SDS011;5708;50.660;6.778;2023-03-21T01:40:17;11.98;;;4.97;;
11305;SDS011;5708;50.660;6.778;2023-03-21T01:42:42;14.40;;;5.53;;
11305;SDS011;5708;50.660;6.778;2023-03-21T01:47:52;12.13;;;5.45;;
11305;SDS011;5708;50.660;6.778;2023-03-21T01:50:17;13.32;;;6.07;;
11305;SDS011;5708;50.660;6.778;2023-03-21T01:52:46;13.23;;;5.20;;
11305;SDS011;5708;50.660;6.778;2023-03-21T01:55:14;12.27;;;4.90;;
11305;SDS011;5708;50.660;6.778;2023-03-21T01:57:48;16.15;;;5.38;;
11305;SDS011;5708;50.660;6.778;2023-03-21T02:00:17;16.15;;;5.78;;
11305;SDS011;5708;50.660;6.778;2023-03-21T02:02:44;13.00;;;5.18;;
11305;SDS011;5708;50.660;6.778;2023-03-21T02:05:21;13.07;;;4.90;;
11305;SDS011;5708;50.660;6.778;2023-03-21T02:07:48;15.60;;;5.90;;
11305;SDS011;5708;50.660;6.778;2023-03-21T02:10:14;14.57;;;5.68;;
11305;SDS011;5708;50.660;6.778;2023-03-21T02:12:40;15.80;;;6.25;;
11305;SDS011;5708;50.660;6.778;2023-03-21T02:15:06;18.90;;;6.05;;
11305;SDS011;5708;50.660;6.778;2023-03-21T02:27:56;17.42;;;5.68;;
11305;SDS011;5708;50.660;6.778;2023-03-21T02:33:00;12.07;;;4.82;;
11305;SDS011;5708;50.660;6.778;2023-03-21T02:40:43;16.67;;;5.33;;
11305;SDS011;5708;50.660;6.778;2023-03-21T02:43:23;12.65;;;6.25;;
11305;SDS011;5708;50.660;6.778;2023-03-21T02:46:01;15.00;;;5.65;;
11305;SDS011;5708;50.660;6.778;2023-03-21T02:48:31;16.95;;;6.05;;
11305;SDS011;5708;50.660;6.778;2023-03-21T02:50:58;13.75;;;5.63;;
11305;SDS011;5708;50.660;6.778;2023-03-21T02:53:26;15.55;;;5.85;;
11305;SDS011;5708;50.660;6.778;2023-03-21T02:55:53;14.00;;;5.70;;
11305;SDS011;5708;50.660;6.778;2023-03-21T02:58:19;15.35;;;5.53;;
11305;SDS011;5708;50.660;6.778;2023-03-21T03:00:45;11.55;;;4.88;;
11305;SDS011;5708;50.660;6.778;2023-03-21T03:03:12;14.25;;;5.18;;
11305;SDS011;5708;50.660;6.778;2023-03-21T03:05:56;18.40;;;5.70;;
11305;SDS011;5708;50.660;6.778;2023-03-21T03:08:26;15.25;;;5.70;;
11305;SDS011;5708;50.660;6.778;2023-03-21T03:14:16;17.38;;;5.68;;
11305;SDS011;5708;50.660;6.778;2023-03-21T03:16:34;13.65;;;5.50;;
11305;SDS011;5708;50.660;6.778;2023-03-21T03:19:06;15.50;;;5.65;;
11305;SDS011;5708;50.660;6.778;2023-03-21T03:21:40;12.82;;;5.40;;
11305;SDS011;5708;50.660;6.778;2023-03-21T03:24:50;13.95;;;5.25;;
11305;SDS011;5708;50.660;6.778;2023-03-21T03:26:56;17.38;;;5.72;;
11305;SDS011;5708;50.660;6.778;2023-03-21T03:29:22;13.02;;;5.35;;
11305;SDS011;5708;50.660;6.778;2023-03-21T03:34:22;12.88;;;5.53;;
11305;SDS011;5708;50.660;6.778;2023-03-21T03:36:51;14.73;;;5.70;;
11305;SDS011;5708;50.660;6.778;2023-03-21T03:39:20;15.55;;;5.65;;
11305;SDS011;5708;50.660;6.778;2023-03-21T03:41:57;13.43;;;5.57;;
11305;SDS011;5708;50.660;6.778;2023-03-21T03:44:24;12.43;;;5.05;;
11305;SDS011;5708;50.660;6.778;2023-03-21T03:46:55;15.30;;;5.43;;
11305;SDS011;5708;50.660;6.778;2023-03-21T03:49:23;15.27;;;5.97;;
11305;SDS011;5708;50.660;6.778;2023-03-21T03:54:22;18.23;;;5.38;;
11305;SDS011;5708;50.660;6.778;2023-03-21T03:56:48;15.02;;;5.38;;
11305;SDS011;5708;50.660;6.778;2023-03-21T03:59:17;17.45;;;5.78;;
11305;SDS011;5708;50.660;6.778;2023-03-21T04:01:43;14.52;;;5.60;;
11305;SDS011;5708;50.660;6.778;2023-03-21T04:04:08;15.10;;;5.47;;
11305;SDS011;5708;50.660;6.778;2023-03-21T04:06:34;14.68;;;6.47;;
11305;SDS011;5708;50.660;6.778;2023-03-21T04:08:59;20.70;;;6.33;;
11305;SDS011;5708;50.660;6.778;2023-03-21T04:11:25;13.52;;;5.70;;
11305;SDS011;5708;50.660;6.778;2023-03-21T04:13:51;13.70;;;5.45;;
11305;SDS011;5708;50.660;6.778;2023-03-21T04:16:17;13.70;;;6.03;;
11305;SDS011;5708;50.660;6.778;2023-03-21T04:18:43;19.23;;;6.35;;
11305;SDS011;5708;50.660;6.778;2023-03-21T04:21:09;11.63;;;5.47;;
11305;SDS011;5708;50.660;6.778;2023-03-21T04:23:36;11.27;;;5.78;;
11305;SDS011;5708;50.660;6.778;2023-03-21T04:26:02;16.75;;;5.47;;
11305;SDS011;5708;50.660;6.778;2023-03-21T04:28:28;15.50;;;5.57;;
11305;SDS011;5708;50.660;6.778;2023-03-21T04:30:53;16.30;;;5.87;;
11305;SDS011;5708;50.660;6.778;2023-03-21T04:33:21;13.23;;;6.13;;
11305;SDS011;5708;50.660;6.778;2023-03-21T04:35:50;14.30;;;6.15;;
11305;SDS011;5708;50.660;6.778;2023-03-21T04:38:20;18.80;;;5.45;;
11305;SDS011;5708;50.660;6.778;2023-03-21T04:40:45;14.25;;;5.57;;
11305;SDS011;5708;50.660;6.778;2023-03-21T04:43:10;13.23;;;5.33;;
11305;SDS011;5708;50.660;6.778;2023-03-21T04:45:36;19.15;;;6.75;;
11305;SDS011;5708;50.660;6.778;2023-03-21T04:48:01;15.30;;;5.93;;
11305;SDS011;5708;50.660;6.778;2023-03-21T04:50:26;17.10;;;5.72;;
11305;SDS011;5708;50.660;6.778;2023-03-21T04:52:51;14.30;;;6.33;;
11305;SDS011;5708;50.660;6.778;2023-03-21T04:55:16;19.17;;;6.32;;
11305;SDS011;5708;50.660;6.778;2023-03-21T04:57:45;14.55;;;5.32;;
11305;SDS011;5708;50.660;6.778;2023-03-21T05:00:10;16.20;;;5.70;;
11305;SDS011;5708;50.660;6.778;2023-03-21T05:02:38;19.05;;;6.30;;
11305;SDS011;5708;50.660;6.778;2023-03-21T05:05:03;15.33;;;5.67;;
11305;SDS011;5708;50.660;6.778;2023-03-21T05:07:28;18.88;;;5.85;;
11305;SDS011;5708;50.660;6.778;2023-03-21T05:09:55;19.00;;;6.47;;
11305;SDS011;5708;50.660;6.778;2023-03-21T05:12:20;14.00;;;6.27;;
11305;SDS011;5708;50.660;6.778;2023-03-21T05:14:45;13.73;;;6.00;;
11305;SDS011;5708;50.660;6.778;2023-03-21T05:17:10;17.13;;;6.20;;
11305;SDS011;5708;50.660;6.778;2023-03-21T05:19:39;12.27;;;5.78;;
11305;SDS011;5708;50.660;6.778;2023-03-21T05:22:09;13.40;;;6.68;;
11305;SDS011;5708;50.660;6.778;2023-03-21T05:24:34;17.08;;;6.88;;
11305;SDS011;5708;50.660;6.778;2023-03-21T05:27:03;14.48;;;6.05;;
11305;SDS011;5708;50.660;6.778;2023-03-21T05:29:29;14.63;;;5.90;;
11305;SDS011;5708;50.660;6.778;2023-03-21T05:31:55;16.42;;;5.93;;
11305;SDS011;5708;50.660;6.778;2023-03-21T05:34:20;14.88;;;6.15;;
11305;SDS011;5708;50.660;6.778;2023-03-21T05:36:45;17.97;;;6.80;;
11305;SDS011;5708;50.660;6.778;2023-03-21T05:39:10;15.15;;;6.32;;
11305;SDS011;5708;50.660;6.778;2023-03-21T05:41:36;14.77;;;5.95;;
11305;SDS011;5708;50.660;6.778;2023-03-21T05:44:01;15.97;;;6.03;;
11305;SDS011;5708;50.660;6.778;2023-03-21T05:46:26;16.02;;;6.45;;
11305;SDS011;5708;50.660;6.778;2023-03-21T05:48:52;14.73;;;6.28;;
11305;SDS011;5708;50.660;6.778;2023-03-21T05:51:17;19.53;;;6.33;;
11305;SDS011;5708;50.660;6.778;2023-03-21T05:53:42;19.27;;;6.60;;
11305;SDS011;5708;50.660;6.778;2023-03-21T05:56:08;14.55;;;6.68;;
11305;SDS011;5708;50.660;6.778;2023-03-21T05:58:33;15.95;;;6.78;;
11305;SDS011;5708;50.660;6.778;2023-03-21T06:00:58;16.60;;;7.03;;
11305;SDS011;5708;50.660;6.778;2023-03-21T06:03:23;16.97;;;6.53;;
11305;SDS011;5708;50.660;6.778;2023-03-21T06:05:49;13.55;;;6.88;;
11305;SDS011;5708;50.660;6.778;2023-03-21T06:08:14;15.68;;;7.15;;
11305;SDS011;5708;50.660;6.778;2023-03-21T06:10:39;20.77;;;7.03;;
11305;SDS011;5708;50.660;6.778;2023-03-21T06:13:05;17.35;;;7.25;;
11305;SDS011;5708;50.660;6.778;2023-03-21T06:15:30;13.07;;;6.75;;
11305;SDS011;5708;50.660;6.778;2023-03-21T06:17:55;14.43;;;6.40;;
11305;SDS011;5708;50.660;6.778;2023-03-21T06:20:20;18.57;;;7.70;;
11305;SDS011;5708;50.660;6.778;2023-03-21T06:22:46;18.27;;;7.17;;
11305;SDS011;5708;50.660;6.778;2023-03-21T06:25:11;15.18;;;6.63;;
11305;SDS011;5708;50.660;6.778;2023-03-21T06:27:36;14.93;;;7.20;;
11305;SDS011;5708;50.660;6.778;2023-03-21T06:30:02;18.17;;;7.25;;
11305;SDS011;5708;50.660;6.778;2023-03-21T06:32:28;15.60;;;7.00;;
11305;SDS011;5708;50.660;6.778;2023-03-21T06:34:53;17.73;;;6.97;;
11305;SDS011;5708;50.660;6.778;2023-03-21T06:37:18;18.80;;;7.35;;
11305;SDS011;5708;50.660;6.778;2023-03-21T06:39:44;16.55;;;7.45;;
11305;SDS011;5708;50.660;6.778;2023-03-21T06:42:11;16.20;;;7.55;;
11305;SDS011;5708;50.660;6.778;2023-03-21T06:44:36;20.30;;;8.10;;
11305;SDS011;5708;50.660;6.778;2023-03-21T06:47:01;17.75;;;7.43;;
11305;SDS011;5708;50.660;6.778;2023-03-21T06:49:27;18.50;;;7.82;;
11305;SDS011;5708;50.660;6.778;2023-03-21T06:51:52;19.20;;;9.43;;
11305;SDS011;5708;50.660;6.778;2023-03-21T06:54:18;17.80;;;8.57;;
11305;SDS011;5708;50.660;6.778;2023-03-21T06:56:43;16.10;;;7.68;;
11305;SDS011;5708;50.660;6.778;2023-03-21T06:59:09;20.60;;;7.78;;
11305;SDS011;5708;50.660;6.778;2023-03-21T07:01:34;19.08;;;8.48;;
11305;SDS011;5708;50.660;6.778;2023-03-21T07:03:59;17.58;;;7.82;;
11305;SDS011;5708;50.660;6.778;2023-03-21T07:06:25;22.97;;;8.50;;
11305;SDS011;5708;50.660;6.778;2023-03-21T07:08:50;24.02;;;8.07;;
11305;SDS011;5708;50.660;6.778;2023-03-21T07:11:19;19.08;;;9.20;;
11305;SDS011;5708;50.660;6.778;2023-03-21T07:13:44;21.10;;;9.43;;
11305;SDS011;5708;50.660;6.778;2023-03-21T07:16:10;22.95;;;8.75;;
11305;SDS011;5708;50.660;6.778;2023-03-21T07:18:35;18.95;;;8.88;;
11305;SDS011;5708;50.660;6.778;2023-03-21T07:21:00;19.25;;;9.25;;
11305;SDS011;5708;50.660;6.778;2023-03-21T07:23:26;17.55;;;9.65;;
11305;SDS011;5708;50.660;6.778;2023-03-21T07:25:52;17.58;;;9.25;;
11305;SDS011;5708;50.660;6.778;2023-03-21T07:28:17;20.80;;;9.18;;
11305;SDS011;5708;50.660;6.778;2023-03-21T07:30:43;22.88;;;9.88;;
11305;SDS011;5708;50.660;6.778;2023-03-21T07:33:09;19.20;;;9.23;;
11305;SDS011;5708;50.660;6.778;2023-03-21T07:35:34;19.10;;;9.73;;
11305;SDS011;5708;50.660;6.778;2023-03-21T07:38:01;20.52;;;9.18;;
11305;SDS011;5708;50.660;6.778;2023-03-21T07:40:26;22.15;;;9.60;;
11305;SDS011;5708;50.660;6.778;2023-03-21T07:42:52;20.40;;;9.00;;
11305;SDS011;5708;50.660;6.778;2023-03-21T07:45:17;23.13;;;10.17;;
11305;SDS011;5708;50.660;6.778;2023-03-21T07:47:47;23.42;;;9.70;;
11305;SDS011;5708;50.660;6.778;2023-03-21T07:50:13;18.85;;;9.13;;
11305;SDS011;5708;50.660;6.778;2023-03-21T07:52:38;20.90;;;8.90;;
11305;SDS011;5708;50.660;6.778;2023-03-21T07:55:04;21.17;;;8.43;;
11305;SDS011;5708;50.660;6.778;2023-03-21T07:57:29;19.80;;;8.50;;
11305;SDS011;5708;50.660;6.778;2023-03-21T07:59:54;19.17;;;8.57;;
11305;SDS011;5708;50.660;6.778;2023-03-21T08:02:20;20.20;;;9.70;;
11305;SDS011;5708;50.660;6.778;2023-03-21T08:04:45;20.52;;;8.57;;
11305;SDS011;5708;50.660;6.778;2023-03-21T08:07:10;19.67;;;9.45;;
11305;SDS011;5708;50.660;6.778;2023-03-21T08:09:36;20.88;;;9.20;;
11305;SDS011;5708;50.660;6.778;2023-03-21T08:12:01;19.37;;;9.10;;
11305;SDS011;5708;50.660;6.778;2023-03-21T08:14:27;24.48;;;9.57;;
11305;SDS011;5708;50.660;6.778;2023-03-21T08:16:52;22.33;;;9.67;;
11305;SDS011;5708;50.660;6.778;2023-03-21T08:19:17;16.70;;;9.20;;
11305;SDS011;5708;50.660;6.778;2023-03-21T08:21:45;19.85;;;8.80;;
11305;SDS011;5708;50.660;6.778;2023-03-21T08:24:10;18.52;;;8.45;;
11305;SDS011;5708;50.660;6.778;2023-03-21T08:26:36;21.33;;;9.10;;
11305;SDS011;5708;50.660;6.778;2023-03-21T08:29:02;19.70;;;8.98;;
11305;SDS011;5708;50.660;6.778;2023-03-21T08:31:27;17.90;;;8.95;;
11305;SDS011;5708;50.660;6.778;2023-03-21T08:33:52;20.20;;;9.43;;
11305;SDS011;5708;50.660;6.778;2023-03-21T08:36:20;21.23;;;9.80;;
11305;SDS011;5708;50.660;6.778;2023-03-21T08:38:45;18.77;;;8.85;;
11305;SDS011;5708;50.660;6.778;2023-03-21T08:41:12;19.33;;;8.15;;
11305;SDS011;5708;50.660;6.778;2023-03-21T08:43:37;21.23;;;8.87;;
11305;SDS011;5708;50.660;6.778;2023-03-21T08:46:05;17.87;;;8.83;;
11305;SDS011;5708;50.660;6.778;2023-03-21T08:48:31;17.35;;;8.35;;
11305;SDS011;5708;50.660;6.778;2023-03-21T08:50:58;22.95;;;8.45;;
11305;SDS011;5708;50.660;6.778;2023-03-21T08:53:23;20.00;;;8.68;;
11305;SDS011;5708;50.660;6.778;2023-03-21T08:55:49;22.13;;;9.10;;
11305;SDS011;5708;50.660;6.778;2023-03-21T08:58:14;18.52;;;7.85;;
11305;SDS011;5708;50.660;6.778;2023-03-21T09:00:40;19.98;;;8.50;;
11305;SDS011;5708;50.660;6.778;2023-03-21T09:03:05;17.70;;;7.70;;
11305;SDS011;5708;50.660;6.778;2023-03-21T09:05:30;17.50;;;8.30;;
11305;SDS011;5708;50.660;6.778;2023-03-21T09:07:55;18.13;;;7.70;;
11305;SDS011;5708;50.660;6.778;2023-03-21T09:10:22;18.15;;;8.05;;
11305;SDS011;5708;50.660;6.778;2023-03-21T09:12:48;17.50;;;7.65;;
11305;SDS011;5708;50.660;6.778;2023-03-21T09:15:14;19.05;;;7.70;;
11305;SDS011;5708;50.660;6.778;2023-03-21T09:17:39;17.88;;;7.60;;
11305;SDS011;5708;50.660;6.778;2023-03-21T09:20:10;16.90;;;7.88;;
11305;SDS011;5708;50.660;6.778;2023-03-21T09:22:37;16.92;;;8.52;;
11305;SDS011;5708;50.660;6.778;2023-03-21T09:25:02;16.95;;;7.55;;
11305;SDS011;5708;50.660;6.778;2023-03-21T09:27:28;18.83;;;8.30;;
11305;SDS011;5708;50.660;6.778;2023-03-21T09:29:53;17.02;;;8.10;;
11305;SDS011;5708;50.660;6.778;2023-03-21T09:32:19;22.40;;;7.68;;
11305;SDS011;5708;50.660;6.778;2023-03-21T09:34:44;21.27;;;8.50;;
11305;SDS011;5708;50.660;6.778;2023-03-21T09:37:10;18.77;;;8.40;;
11305;SDS011;5708;50.660;6.778;2023-03-21T09:39:37;16.67;;;8.82;;
11305;SDS011;5708;50.660;6.778;2023-03-21T09:44:38;18.25;;;9.43;;
11305;SDS011;5708;50.660;6.778;2023-03-21T09:49:31;19.98;;;9.20;;
11305;SDS011;5708;50.660;6.778;2023-03-21T09:52:00;22.48;;;8.70;;
11305;SDS011;5708;50.660;6.778;2023-03-21T09:54:29;17.40;;;8.73;;
11305;SDS011;5708;50.660;6.778;2023-03-21T09:56:57;15.82;;;8.13;;
11305;SDS011;5708;50.660;6.778;2023-03-21T09:59:31;16.45;;;8.93;;
11305;SDS011;5708;50.660;6.778;2023-03-21T10:01:59;23.60;;;8.55;;
11305;SDS011;5708;50.660;6.778;2023-03-21T10:04:25;17.65;;;8.32;;
11305;SDS011;5708;50.660;6.778;2023-03-21T10:07:00;19.60;;;7.90;;
11305;SDS011;5708;50.660;6.778;2023-03-21T10:09:27;16.95;;;8.10;;
11305;SDS011;5708;50.660;6.778;2023-03-21T10:12:03;19.33;;;8.57;;
11305;SDS011;5708;50.660;6.778;2023-03-21T10:14:41;18.58;;;8.35;;
11305;SDS011;5708;50.660;6.778;2023-03-21T10:19:56;18.33;;;8.52;;
11305;SDS011;5708;50.660;6.778;2023-03-21T10:22:25;17.75;;;8.05;;
11305;SDS011;5708;50.660;6.778;2023-03-21T10:24:50;16.93;;;8.57;;
11305;SDS011;5708;50.660;6.778;2023-03-21T10:27:15;14.50;;;7.77;;
11305;SDS011;5708;50.660;6.778;2023-03-21T10:29:41;16.90;;;8.47;;
11305;SDS011;5708;50.660;6.778;2023-03-21T10:32:11;19.20;;;8.40;;
11305;SDS011;5708;50.660;6.778;2023-03-21T10:37:09;14.55;;;7.47;;
11305;SDS011;5708;50.660;6.778;2023-03-21T10:42:00;12.73;;;6.38;;
11305;SDS011;5708;50.660;6.778;2023-03-21T10:44:29;14.70;;;6.80;;
11305;SDS011;5708;50.660;6.778;2023-03-21T10:46:57;17.25;;;6.75;;
11305;SDS011;5708;50.660;6.778;2023-03-21T10:49:22;13.23;;;6.50;;
11305;SDS011;5708;50.660;6.778;2023-03-21T10:51:50;17.02;;;6.90;;
11305;SDS011;5708;50.660;6.778;2023-03-21T10:54:17;17.30;;;6.97;;
11305;SDS011;5708;50.660;6.778;2023-03-21T10:56:45;13.13;;;6.20;;
11305;SDS011;5708;50.660;6.778;2023-03-21T10:59:16;16.08;;;6.18;;
11305;SDS011;5708;50.660;6.778;2023-03-21T11:01:42;13.63;;;6.55;;
11305;SDS011;5708;50.660;6.778;2023-03-21T11:04:14;13.18;;;6.80;;
11305;SDS011;5708;50.660;6.778;2023-03-21T11:06:40;16.90;;;5.88;;
11305;SDS011;5708;50.660;6.778;2023-03-21T11:09:14;12.45;;;5.90;;
11305;SDS011;5708;50.660;6.778;2023-03-21T11:11:40;11.63;;;5.50;;
11305;SDS011;5708;50.660;6.778;2023-03-21T11:16:50;11.13;;;5.80;;
11305;SDS011;5708;50.660;6.778;2023-03-21T11:19:24;10.48;;;5.63;;
11305;SDS011;5708;50.660;6.778;2023-03-21T11:21:51;13.82;;;5.28;;
11305;SDS011;5708;50.660;6.778;2023-03-21T11:24:16;10.98;;;4.68;;
11305;SDS011;5708;50.660;6.778;2023-03-21T11:26:43;8.85;;;4.20;;
11305;SDS011;5708;50.660;6.778;2023-03-21T11:29:22;9.55;;;4.40;;
11305;SDS011;5708;50.660;6.778;2023-03-21T11:31:48;10.77;;;4.53;;
11305;SDS011;5708;50.660;6.778;2023-03-21T11:34:23;10.15;;;3.80;;
11305;SDS011;5708;50.660;6.778;2023-03-21T11:36:50;11.23;;;4.30;;
11305;SDS011;5708;50.660;6.778;2023-03-21T11:41:47;9.90;;;3.28;;
11305;SDS011;5708;50.660;6.778;2023-03-21T11:44:27;8.35;;;3.65;;
11305;SDS011;5708;50.660;6.778;2023-03-21T11:46:53;10.38;;;3.60;;
11305;SDS011;5708;50.660;6.778;2023-03-21T11:49:19;8.75;;;3.67;;
11305;SDS011;5708;50.660;6.778;2023-03-21T11:54:11;9.43;;;3.70;;
11305;SDS011;5708;50.660;6.778;2023-03-21T11:56:43;10.88;;;3.80;;
11305;SDS011;5708;50.660;6.778;2023-03-21T12:04:37;8.30;;;3.22;;
11305;SDS011;5708;50.660;6.778;2023-03-21T12:23:07;9.60;;;3.00;;
11305;SDS011;5708;50.660;6.778;2023-03-21T12:30:38;6.95;;;3.30;;
11305;SDS011;5708;50.660;6.778;2023-03-21T12:38:14;7.30;;;3.20;;
11305;SDS011;5708;50.660;6.778;2023-03-21T12:43:29;6.20;;;3.10;;
11305;SDS011;5708;50.660;6.778;2023-03-21T12:45:59;7.53;;;3.13;;
11305;SDS011;5708;50.660;6.778;2023-03-21T12:50:50;7.50;;;3.00;;
11305;SDS011;5708;50.660;6.778;2023-03-21T12:56:03;8.38;;;2.50;;
11305;SDS011;5708;50.660;6.778;2023-03-21T12:58:29;6.80;;;3.00;;
11305;SDS011;5708;50.660;6.778;2023-03-21T13:00:55;8.73;;;3.45;;
11305;SDS011;5708;50.660;6.778;2023-03-21T13:06:03;6.22;;;2.60;;
11305;SDS011;5708;50.660;6.778;2023-03-21T13:11:11;7.13;;;2.67;;
11305;SDS011;5708;50.660;6.778;2023-03-21T13:23:57;7.72;;;2.70;;
11305;SDS011;5708;50.660;6.778;2023-03-21T13:26:30;7.15;;;3.22;;
11305;SDS011;5708;50.660;6.778;2023-03-21T13:28:56;7.63;;;2.83;;
11305;SDS011;5708;50.660;6.778;2023-03-21T13:31:25;7.07;;;2.80;;
11305;SDS011;5708;50.660;6.778;2023-03-21T13:33:57;5.07;;;2.30;;
11305;SDS011;5708;50.660;6.778;2023-03-21T13:36:27;7.00;;;2.58;;
11305;SDS011;5708;50.660;6.778;2023-03-21T13:38:53;7.15;;;2.72;;
11305;SDS011;5708;50.660;6.778;2023-03-21T13:41:20;6.10;;;2.33;;
11305;SDS011;5708;50.660;6.778;2023-03-21T13:43:54;6.75;;;2.38;;
11305;SDS011;5708;50.660;6.778;2023-03-21T14:02:02;8.70;;;3.25;;
11305;SDS011;5708;50.660;6.778;2023-03-21T14:04:30;7.22;;;2.47;;
11305;SDS011;5708;50.660;6.778;2023-03-21T14:06:57;6.03;;;3.00;;
11305;SDS011;5708;50.660;6.778;2023-03-21T14:09:28;5.55;;;2.58;;
11305;SDS011;5708;50.660;6.778;2023-03-21T14:11:55;6.38;;;2.38;;
11305;SDS011;5708;50.660;6.778;2023-03-21T14:14:22;7.05;;;3.03;;
11305;SDS011;5708;50.660;6.778;2023-03-21T14:16:51;7.47;;;3.10;;
11305;SDS011;5708;50.660;6.778;2023-03-21T14:19:16;7.45;;;3.25;;
11305;SDS011;5708;50.660;6.778;2023-03-21T14:21:45;6.57;;;3.23;;
11305;SDS011;5708;50.660;6.778;2023-03-21T14:24:12;9.25;;;3.90;;
11305;SDS011;5708;50.660;6.778;2023-03-21T14:26:44;7.97;;;3.88;;
11305;SDS011;5708;50.660;6.778;2023-03-21T14:29:17;5.43;;;3.10;;
11305;SDS011;5708;50.660;6.778;2023-03-21T14:31:44;7.28;;;2.92;;
11305;SDS011;5708;50.660;6.778;2023-03-21T14:34:09;6.40;;;3.17;;
11305;SDS011;5708;50.660;6.778;2023-03-21T14:36:37;5.28;;;2.88;;
11305;SDS011;5708;50.660;6.778;2023-03-21T14:41:41;7.78;;;3.88;;
11305;SDS011;5708;50.660;6.778;2023-03-21T14:44:11;11.50;;;3.95;;
11305;SDS011;5708;50.660;6.778;2023-03-21T14:46:38;6.80;;;3.70;;
11305;SDS011;5708;50.660;6.778;2023-03-21T14:51:56;7.22;;;3.83;;
11305;SDS011;5708;50.660;6.778;2023-03-21T14:54:22;6.97;;;3.20;;
11305;SDS011;5708;50.660;6.778;2023-03-21T14:56:50;7.47;;;4.07;;
11305;SDS011;5708;50.660;6.778;2023-03-21T14:59:16;7.05;;;3.20;;
11305;SDS011;5708;50.660;6.778;2023-03-21T15:01:42;6.57;;;3.20;;
11305;SDS011;5708;50.660;6.778;2023-03-21T15:04:10;6.93;;;3.35;;
11305;SDS011;5708;50.660;6.778;2023-03-21T15:09:14;8.75;;;3.35;;
11305;SDS011;5708;50.660;6.778;2023-03-21T15:11:39;6.32;;;3.50;;
11305;SDS011;5708;50.660;6.778;2023-03-21T15:14:06;5.27;;;3.20;;
11305;SDS011;5708;50.660;6.778;2023-03-21T15:16:31;4.80;;;2.90;;
11305;SDS011;5708;50.660;6.778;2023-03-21T15:18:57;8.13;;;3.75;;
11305;SDS011;5708;50.660;6.778;2023-03-21T15:21:31;7.00;;;2.97;;
11305;SDS011;5708;50.660;6.778;2023-03-21T15:24:19;8.13;;;2.88;;
11305;SDS011;5708;50.660;6.778;2023-03-21T15:26:45;6.28;;;2.50;;
11305;SDS011;5708;50.660;6.778;2023-03-21T15:29:11;5.53;;;2.70;;
11305;SDS011;5708;50.660;6.778;2023-03-21T15:31:38;6.88;;;2.65;;
11305;SDS011;5708;50.660;6.778;2023-03-21T15:34:03;6.25;;;2.70;;
11305;SDS011;5708;50.660;6.778;2023-03-21T15:36:36;9.77;;;2.75;;
11305;SDS011;5708;50.660;6.778;2023-03-21T15:39:10;4.97;;;2.58;;
11305;SDS011;5708;50.660;6.778;2023-03-21T15:41:36;5.03;;;2.85;;
11305;SDS011;5708;50.660;6.778;2023-03-21T15:44:11;8.23;;;2.88;;
11305;SDS011;5708;50.660;6.778;2023-03-21T15:51:37;5.93;;;2.63;;
11305;SDS011;5708;50.660;6.778;2023-03-21T15:54:03;10.40;;;2.95;;
11305;SDS011;5708;50.660;6.778;2023-03-21T15:56:31;5.07;;;2.80;;
11305;SDS011;5708;50.660;6.778;2023-03-21T15:58:59;6.75;;;2.47;;
11305;SDS011;5708;50.660;6.778;2023-03-21T16:01:26;6.85;;;2.85;;
11305;SDS011;5708;50.660;6.778;2023-03-21T16:03:55;6.65;;;2.80;;
11305;SDS011;5708;50.660;6.778;2023-03-21T16:06:21;5.50;;;2.47;;
11305;SDS011;5708;50.660;6.778;2023-03-21T16:13:46;8.05;;;2.95;;
11305;SDS011;5708;50.660;6.778;2023-03-21T16:16:19;4.65;;;2.47;;
11305;SDS011;5708;50.660;6.778;2023-03-21T16:18:44;8.10;;;2.70;;
11305;SDS011;5708;50.660;6.778;2023-03-21T16:21:13;5.13;;;2.38;;
11305;SDS011;5708;50.660;6.778;2023-03-21T16:23:39;9.32;;;2.65;;
11305;SDS011;5708;50.660;6.778;2023-03-21T16:26:05;6.45;;;2.30;;
11305;SDS011;5708;50.660;6.778;2023-03-21T16:28:30;7.70;;;2.88;;
11305;SDS011;5708;50.660;6.778;2023-03-21T16:30:55;7.50;;;3.10;;
11305;SDS011;5708;50.660;6.778;2023-03-21T16:33:21;5.40;;;2.70;;
11305;SDS011;5708;50.660;6.778;2023-03-21T16:35:46;5.82;;;2.50;;
11305;SDS011;5708;50.660;6.778;2023-03-21T16:38:12;7.40;;;3.03;;
11305;SDS011;5708;50.660;6.778;2023-03-21T16:40:38;6.55;;;2.92;;
11305;SDS011;5708;50.660;6.778;2023-03-21T16:43:04;5.65;;;3.05;;
11305;SDS011;5708;50.660;6.778;2023-03-21T16:45:30;5.90;;;2.72;;
11305;SDS011;5708;50.660;6.778;2023-03-21T16:47:56;5.88;;;2.83;;
11305;SDS011;5708;50.660;6.778;2023-03-21T16:50:30;7.10;;;2.75;;
11305;SDS011;5708;50.660;6.778;2023-03-21T16:52:55;7.40;;;3.20;;
11305;SDS011;5708;50.660;6.778;2023-03-21T16:55:21;5.50;;;3.03;;
11305;SDS011;5708;50.660;6.778;2023-03-21T16:57:46;6.10;;;2.55;;
11305;SDS011;5708;50.660;6.778;2023-03-21T17:00:13;5.45;;;2.70;;
11305;SDS011;5708;50.660;6.778;2023-03-21T17:02:40;4.82;;;2.65;;
11305;SDS011;5708;50.660;6.778;2023-03-21T17:05:06;6.43;;;2.85;;
11305;SDS011;5708;50.660;6.778;2023-03-21T17:07:31;7.57;;;2.75;;